Time;durP1;ratioP1;P1;durP2;ratioP2;P2;SDS_P1;SDS_P2;PMS_P1;PMS_P2;Temp;Humidity;BMP_temperature;BMP_pressure;BME280_temperature;BME280_humidity;BME280_pressure;Samples;Min_cycle;Max_cycle;Signal;HPM_P1;HPM_P2
2021/11/19 00:01:58;;;;;;;26.20;10.05;;;;;;;5.84;69.70;101767.19;1826921;78;21125;-65
2021/11/19 00:04:29;;;;;;;29.95;11.43;;;;;;;5.85;69.78;101770.25;1827030;78;21047;-65
2021/11/19 00:06:57;;;;;;;35.95;14.07;;;;;;;5.86;69.71;101768.05;1826744;78;21117;-65
2021/11/19 00:09:26;;;;;;;28.50;11.03;;;;;;;5.89;69.57;101758.91;1826910;78;21048;-65
2021/11/19 00:11:56;;;;;;;22.45;10.93;;;;;;;5.92;69.45;101752.34;1826904;78;21493;-65
2021/11/19 00:14:25;;;;;;;24.40;10.03;;;;;;;5.95;69.38;101748.41;1826909;78;21063;-65
2021/11/19 00:17:05;;;;;;;17.65;9.85;;;;;;;5.97;69.23;101754.53;1826895;78;21121;-65
2021/11/19 00:19:30;;;;;;;22.95;10.30;;;;;;;5.97;69.12;101752.78;1825917;77;21051;-65
2021/11/19 00:22:00;;;;;;;23.83;11.08;;;;;;;6.00;69.06;101754.53;1826910;78;21514;-65
2021/11/19 00:24:29;;;;;;;36.35;16.17;;;;;;;5.97;69.07;101741.47;1826885;78;21095;-65
2021/11/19 00:26:57;;;;;;;35.08;14.60;;;;;;;5.92;69.29;101745.39;1826936;78;21157;-65
2021/11/19 00:29:26;;;;;;;24.43;13.30;;;;;;;5.92;69.25;101736.66;1826999;78;21066;-65
2021/11/19 00:31:55;;;;;;;24.23;12.28;;;;;;;5.94;69.20;101733.62;1826789;78;21059;-65
2021/11/19 00:34:24;;;;;;;23.80;11.33;;;;;;;5.93;69.22;101730.56;1826876;78;21553;-64
2021/11/19 00:36:56;;;;;;;26.27;10.93;;;;;;;5.92;69.23;101728.81;1826845;78;21513;-65
2021/11/19 00:39:25;;;;;;;23.87;12.40;;;;;;;5.92;69.21;101725.78;1826975;78;21055;-65
2021/11/19 00:41:56;;;;;;;28.52;10.90;;;;;;;5.90;69.23;101725.34;1826997;78;21059;-65
2021/11/19 00:44:25;;;;;;;22.32;10.20;;;;;;;5.86;69.22;101724.48;1826786;78;21059;-65
2021/11/19 00:46:56;;;;;;;20.15;9.53;;;;;;;5.86;69.24;101724.92;1826898;78;21083;-65
2021/11/19 00:49:27;;;;;;;20.02;9.93;;;;;;;5.86;69.23;101727.53;1826872;78;21125;-65
2021/11/19 00:51:58;;;;;;;18.67;9.35;;;;;;;5.85;69.17;101721.45;1826991;78;21129;-65
2021/11/19 00:54:30;;;;;;;25.80;9.70;;;;;;;5.83;69.24;101719.70;1826931;78;21078;-65
2021/11/19 00:57:01;;;;;;;23.50;10.08;;;;;;;5.77;69.43;101713.64;1826713;78;21075;-65
2021/11/19 00:59:32;;;;;;;27.37;9.68;;;;;;;5.72;69.56;101707.55;1826934;78;21059;-65
2021/11/19 01:02:07;;;;;;;21.68;9.45;;;;;;;5.71;69.70;101711.03;1826885;78;21083;-65
2021/11/19 01:04:37;;;;;;;18.40;9.45;;;;;;;5.70;69.80;101709.72;1826455;78;21087;-65
2021/11/19 01:07:08;;;;;;;27.77;10.95;;;;;;;5.76;69.73;101706.66;1826940;78;21055;-65
2021/11/19 01:09:40;;;;;;;23.73;10.88;;;;;;;5.82;69.57;101703.60;1826822;78;21180;-65
2021/11/19 01:12:11;;;;;;;40.00;11.90;;;;;;;5.86;69.41;101706.62;1826879;78;21079;-66
2021/11/19 01:14:43;;;;;;;31.68;16.20;;;;;;;5.91;69.23;101699.64;1826964;78;21082;-65
2021/11/19 01:17:18;;;;;;;40.23;16.50;;;;;;;5.92;69.07;101702.25;1826860;78;21153;-65
2021/11/19 01:20:00;;;;;;;43.00;18.27;;;;;;;5.92;68.99;101693.52;1826836;78;21153;-67
2021/11/19 01:22:32;;;;;;;38.45;17.17;;;;;;;5.94;68.95;101691.80;1826994;78;21086;-66
2021/11/19 01:25:01;;;;;;;51.92;18.73;;;;;;;5.94;68.81;101689.18;1826955;78;21060;-65
2021/11/19 01:27:30;;;;;;;41.48;17.50;;;;;;;5.92;68.75;101689.19;1826987;78;21088;-65
2021/11/19 01:29:59;;;;;;;43.38;18.52;;;;;;;5.89;68.66;101685.72;1826985;78;21162;-65
2021/11/19 01:32:28;;;;;;;47.93;17.67;;;;;;;5.85;68.60;101686.61;1826863;78;21501;-65
2021/11/19 01:35:17;;;;;;;42.67;17.73;;;;;;;5.79;68.52;101688.37;1826718;78;21055;-65
2021/11/19 01:38:05;;;;;;;34.58;16.52;;;;;;;5.75;68.50;101690.98;1826928;78;21129;-65
2021/11/19 01:40:47;;;;;;;55.40;22.00;;;;;;;5.66;68.48;101691.88;1771548;80;21071;-65
2021/11/19 01:43:17;;;;;;;49.98;20.62;;;;;;;5.63;68.50;101697.58;1820863;78;21177;-63
2021/11/19 01:45:51;;;;;;;46.63;18.98;;;;;;;5.55;68.54;101698.47;1827031;78;21075;-63
2021/11/19 01:48:41;;;;;;;45.70;21.00;;;;;;;5.48;68.63;101689.32;1827411;78;21051;-63
2021/11/19 01:51:21;;;;;;;42.67;19.52;;;;;;;5.44;68.58;101687.19;1881496;76;21507;-62
2021/11/19 01:54:06;;;;;;;44.58;20.12;;;;;;;5.35;68.57;101687.20;1881757;76;21128;-61
2021/11/19 01:56:39;;;;;;;44.30;19.87;;;;;;;5.26;68.71;101675.03;1881664;75;21504;-62
2021/11/19 01:59:13;;;;;;;44.35;21.37;;;;;;;5.23;68.74;101673.72;1881623;76;21090;-61
2021/11/19 02:01:45;;;;;;;42.93;20.25;;;;;;;5.21;68.73;101670.25;1881413;76;21130;-62
2021/11/19 02:04:18;;;;;;;48.60;20.72;;;;;;;5.20;68.75;101671.10;1881606;76;21128;-62
2021/11/19 02:06:59;;;;;;;47.67;21.77;;;;;;;5.18;68.78;101676.36;1881663;76;21144;-62
2021/11/19 02:09:54;;;;;;;48.20;19.40;;;;;;;5.16;68.88;101674.16;1881629;76;21046;-63
2021/11/19 02:12:32;;;;;;;38.67;16.67;;;;;;;5.14;68.92;101673.73;1881527;76;21078;-62
2021/11/19 02:15:21;;;;;;;39.75;17.62;;;;;;;5.13;68.83;101675.48;1881554;76;21580;-62
2021/11/19 02:17:52;;;;;;;36.35;16.15;;;;;;;5.11;68.92;101681.56;1881710;76;21567;-62
2021/11/19 02:20:27;;;;;;;40.48;17.20;;;;;;;5.09;68.96;101676.78;1881581;76;21047;-62
2021/11/19 02:23:01;;;;;;;43.25;16.37;;;;;;;5.07;68.82;101670.70;1881028;76;21042;-62
2021/11/19 02:25:35;;;;;;;42.25;17.27;;;;;;;5.07;68.91;101662.86;1881618;76;21492;-62
2021/11/19 02:28:10;;;;;;;38.83;16.75;;;;;;;5.02;69.06;101666.80;1880279;76;21517;-62
2021/11/19 02:30:50;;;;;;;47.73;17.67;;;;;;;5.03;68.86;101668.52;1881393;76;21085;-63
2021/11/19 02:33:20;;;;;;;40.65;16.77;;;;;;;5.04;68.98;101661.14;1881683;76;21019;-62
2021/11/19 02:36:06;;;;;;;42.88;17.82;;;;;;;4.99;69.12;101665.05;1881571;76;21493;-62
2021/11/19 02:38:44;;;;;;;45.58;18.80;;;;;;;5.00;69.05;101661.58;1881541;76;21109;-62
2021/11/19 02:41:15;;;;;;;41.73;17.95;;;;;;;4.96;68.98;101661.16;1881699;76;21524;-62
2021/11/19 02:43:47;;;;;;;38.92;16.48;;;;;;;4.98;68.95;101663.33;1881644;76;21120;-62
2021/11/19 02:46:19;;;;;;;35.52;16.75;;;;;;;5.01;68.86;101663.30;1877279;76;21050;-62
2021/11/19 02:48:49;;;;;;;42.33;17.87;;;;;;;4.96;69.00;101661.16;1881623;76;21140;-62
2021/11/19 02:51:20;;;;;;;42.98;17.70;;;;;;;4.97;69.16;101665.93;1855227;76;21489;-62
2021/11/19 02:53:50;;;;;;;41.60;18.00;;;;;;;5.01;69.11;101666.36;1852507;77;21136;-61
2021/11/19 02:56:21;;;;;;;35.98;15.83;;;;;;;5.07;69.12;101661.56;1852522;77;21530;-62
2021/11/19 02:58:53;;;;;;;41.50;16.90;;;;;;;5.12;68.96;101660.67;1852765;77;21029;-61
2021/11/19 03:01:28;;;;;;;44.73;17.87;;;;;;;5.17;68.78;101658.08;1852572;77;21147;-61
2021/11/19 03:04:09;;;;;;;42.15;16.57;;;;;;;5.19;68.67;101658.94;1852556;77;21168;-62
2021/11/19 03:06:43;;;;;;;42.35;19.45;;;;;;;5.18;68.73;101658.48;1852566;77;21098;-62
2021/11/19 03:09:14;;;;;;;48.30;19.37;;;;;;;5.20;68.80;101651.52;1852669;77;21461;-62
2021/11/19 03:11:43;;;;;;;46.83;21.27;;;;;;;5.19;68.85;101655.02;1852558;77;21097;-62
2021/11/19 03:14:14;;;;;;;47.13;19.77;;;;;;;5.21;68.97;101649.36;1819571;77;21537;-63
2021/11/19 03:16:44;;;;;;;50.45;20.05;;;;;;;5.24;68.91;101641.53;1852364;77;21106;-63
2021/11/19 03:19:13;;;;;;;52.10;21.70;;;;;;;5.29;68.75;101642.80;1852567;77;21575;-62
2021/11/19 03:21:44;;;;;;;48.80;22.77;;;;;;;5.29;68.65;101638.44;1852737;77;21151;-62
2021/11/19 03:24:15;;;;;;;51.02;20.82;;;;;;;5.31;68.58;101638.03;1852576;77;21609;-62
2021/11/19 03:26:45;;;;;;;60.73;22.58;;;;;;;5.33;68.45;101638.89;1852678;77;21049;-62
2021/11/19 03:29:15;;;;;;;58.95;21.90;;;;;;;5.33;68.36;101642.80;1852534;77;21041;-62
2021/11/19 03:31:45;;;;;;;48.13;22.17;;;;;;;5.34;68.39;101648.89;1852563;77;21551;-62
2021/11/19 03:34:16;;;;;;;50.85;20.48;;;;;;;5.33;68.31;101641.50;1852778;77;21062;-62
2021/11/19 03:36:47;;;;;;;53.00;20.75;;;;;;;5.27;68.48;101630.19;1852512;77;21045;-62
2021/11/19 03:39:18;;;;;;;49.88;19.48;;;;;;;5.17;68.67;101628.91;1852703;77;21137;-62
2021/11/19 03:41:49;;;;;;;48.65;20.23;;;;;;;5.13;68.76;101633.72;1852537;77;21078;-63
2021/11/19 03:44:24;;;;;;;57.58;20.32;;;;;;;5.09;68.95;101633.70;1852749;77;21041;-62
2021/11/19 03:46:58;;;;;;;59.35;23.27;;;;;;;5.04;69.11;101633.73;1850795;77;21538;-62
2021/11/19 03:49:29;;;;;;;53.05;23.47;;;;;;;5.02;69.34;101627.20;1852712;77;21144;-62
2021/11/19 03:52:00;;;;;;;59.33;21.97;;;;;;;5.06;69.44;101637.20;1877190;76;21074;-64
2021/11/19 03:54:33;;;;;;;59.15;21.10;;;;;;;5.09;69.38;101637.21;1881744;76;21047;-62
2021/11/19 03:57:03;;;;;;;57.78;22.30;;;;;;;5.13;69.38;101638.08;1881604;76;21046;-62
2021/11/19 03:59:32;;;;;;;50.25;19.77;;;;;;;5.13;69.51;101634.16;1881681;76;21112;-62
2021/11/19 04:02:01;;;;;;;57.40;21.68;;;;;;;5.18;69.40;101627.16;1881569;76;21137;-62
2021/11/19 04:04:33;;;;;;;53.92;21.52;;;;;;;5.21;69.16;101628.47;1881608;76;21505;-63
2021/11/19 04:07:03;;;;;;;64.22;25.95;;;;;;;5.25;69.00;101621.50;1881742;76;21074;-62
2021/11/19 04:09:33;;;;;;;56.02;24.20;;;;;;;5.27;68.83;101624.97;1881517;76;21404;-62
2021/11/19 04:12:03;;;;;;;64.50;24.57;;;;;;;5.26;68.76;101620.19;1881504;76;21481;-61
2021/11/19 04:14:33;;;;;;;55.17;23.60;;;;;;;5.25;68.73;101605.38;1881645;76;21019;-61
2021/11/19 04:17:03;;;;;;;57.17;24.07;;;;;;;5.22;68.77;101601.50;1857159;76;21159;-63
2021/11/19 04:19:34;;;;;;;55.92;24.47;;;;;;;5.18;68.90;101610.19;1881509;76;21093;-62
2021/11/19 04:22:05;;;;;;;50.40;23.62;;;;;;;5.20;68.96;101616.27;1881648;76;21018;-62
2021/11/19 04:24:38;;;;;;;56.37;22.13;;;;;;;5.25;68.93;101606.69;1881502;76;21504;-62
2021/11/19 04:27:10;;;;;;;52.23;20.95;;;;;;;5.29;68.88;101600.58;1881627;76;21081;-62
2021/11/19 04:29:53;;;;;;;55.98;21.55;;;;;;;5.32;68.77;101597.97;1878558;76;21081;-62
2021/11/19 04:32:24;;;;;;;50.23;22.30;;;;;;;5.34;68.68;101600.13;1880833;76;21086;-62
2021/11/19 04:34:56;;;;;;;50.70;22.85;;;;;;;5.35;68.72;101604.49;1881436;76;21077;-62
2021/11/19 04:37:26;;;;;;;49.98;21.12;;;;;;;5.37;68.77;101600.13;1881596;76;21089;-62
2021/11/19 04:39:55;;;;;;;55.25;24.25;;;;;;;5.38;68.71;101600.54;1881398;76;21074;-63
2021/11/19 04:42:25;;;;;;;60.08;22.58;;;;;;;5.39;68.68;101598.38;1881474;76;21066;-63
2021/11/19 04:44:54;;;;;;;62.17;23.90;;;;;;;5.39;68.81;101593.16;1881555;76;21055;-63
2021/11/19 04:47:23;;;;;;;60.43;24.65;;;;;;;5.41;68.83;101590.09;1881569;76;21113;-63
2021/11/19 04:49:52;;;;;;;56.23;23.55;;;;;;;5.45;68.85;101591.39;1881647;76;21042;-62
2021/11/19 04:52:21;;;;;;;52.30;20.85;;;;;;;5.46;68.95;101590.50;1881613;76;21168;-62
2021/11/19 04:54:51;;;;;;;50.30;19.95;;;;;;;5.48;68.99;101588.75;1881480;76;21223;-61
2021/11/19 04:57:20;;;;;;;42.05;18.45;;;;;;;5.50;69.04;101593.56;1881792;76;21456;-60
2021/11/19 04:59:49;;;;;;;52.55;19.02;;;;;;;5.53;69.00;101600.95;1881641;76;21075;-63
2021/11/19 05:02:21;;;;;;;45.35;18.67;;;;;;;5.57;68.94;101608.30;1881763;76;21128;-62
2021/11/19 05:04:54;;;;;;;43.48;18.95;;;;;;;5.61;68.80;101599.60;1878607;76;21187;-62
2021/11/19 05:07:23;;;;;;;46.02;18.48;;;;;;;5.65;68.76;101603.93;1881630;76;21513;-62
2021/11/19 05:09:54;;;;;;;45.52;19.50;;;;;;;5.65;68.84;101605.23;1881629;76;21215;-62
2021/11/19 05:12:26;;;;;;;39.92;17.23;;;;;;;5.67;68.78;101602.63;1881675;76;21126;-62
2021/11/19 05:14:56;;;;;;;42.33;18.27;;;;;;;5.69;68.76;101606.95;1881146;76;21075;-62
2021/11/19 05:17:25;;;;;;;41.05;18.10;;;;;;;5.72;68.76;101606.09;1881701;76;21591;-62
2021/11/19 05:19:56;;;;;;;49.65;17.37;;;;;;;5.76;68.78;101615.19;1880714;76;22336;-62
2021/11/19 05:22:25;;;;;;;45.30;17.85;;;;;;;5.75;68.87;101613.44;1881714;76;21058;-62
2021/11/19 05:24:54;;;;;;;42.55;18.35;;;;;;;5.71;69.01;101606.50;1881647;76;21086;-62
2021/11/19 05:27:22;;;;;;;50.98;18.05;;;;;;;5.71;69.12;101605.19;1881755;76;21422;-61
2021/11/19 05:29:51;;;;;;;44.48;16.52;;;;;;;5.77;69.05;101609.10;1881617;76;21019;-62
2021/11/19 05:32:23;;;;;;;44.67;16.23;;;;;;;5.77;69.09;101610.41;1880814;76;21215;-62
2021/11/19 05:34:52;;;;;;;53.98;18.20;;;;;;;5.78;69.16;101612.13;1881630;76;21061;-62
2021/11/19 05:37:21;;;;;;;40.45;16.17;;;;;;;5.84;69.09;101607.75;1881714;76;21508;-62
2021/11/19 05:39:50;;;;;;;47.20;17.45;;;;;;;5.86;69.04;101599.46;1881720;76;21035;-62
2021/11/19 05:42:19;;;;;;;40.55;16.70;;;;;;;5.90;68.96;101598.56;1881634;76;21067;-63
2021/11/19 05:44:48;;;;;;;37.42;16.65;;;;;;;5.95;68.84;101591.56;1881523;76;21552;-64
2021/11/19 05:47:36;;;;;;;43.50;17.17;;;;;;;6.04;68.67;101589.37;1876918;76;21039;-62
2021/11/19 05:50:12;;;;;;;50.65;18.50;;;;;;;6.15;68.43;101591.02;1880860;76;21078;-64
2021/11/19 05:52:41;;;;;;;51.53;19.75;;;;;;;6.24;68.28;101585.31;1865443;76;21073;-63
2021/11/19 05:55:14;;;;;;;49.58;18.75;;;;;;;6.26;68.24;101589.64;1852595;77;21046;-64
2021/11/19 05:57:44;;;;;;;43.25;18.30;;;;;;;6.29;68.30;101590.05;1852684;77;21061;-63
2021/11/19 06:00:16;;;;;;;43.35;17.57;;;;;;;6.34;68.25;101584.34;1852630;77;21518;-63
2021/11/19 06:02:56;;;;;;;45.52;17.70;;;;;;;6.41;68.19;101583.87;1851856;77;21077;-63
2021/11/19 06:05:29;;;;;;;43.05;16.62;;;;;;;6.45;68.12;101580.34;1846663;77;21484;-64
2021/11/19 06:07:59;;;;;;;43.78;16.32;;;;;;;6.42;68.20;101579.94;1845640;77;21143;-63
2021/11/19 06:10:30;;;;;;;45.30;15.93;;;;;;;6.44;68.21;101580.78;1852577;77;21044;-63
2021/11/19 06:13:08;;;;;;;36.00;15.50;;;;;;;6.53;68.19;101575.47;1852589;77;21018;-63
2021/11/19 06:15:40;;;;;;;42.53;16.20;;;;;;;6.64;68.07;101575.80;1852596;77;21042;-63
2021/11/19 06:18:11;;;;;;;39.67;16.40;;;;;;;6.76;67.88;101580.48;1852511;77;21116;-64
2021/11/19 06:20:49;;;;;;;41.15;17.52;;;;;;;6.85;67.74;101575.59;1852630;77;21090;-64
2021/11/19 06:23:23;;;;;;;43.20;17.37;;;;;;;6.92;67.59;101572.03;1852360;77;21042;-64
2021/11/19 06:25:53;;;;;;;38.75;16.85;;;;;;;7.00;67.43;101571.95;1852586;77;21468;-64
2021/11/19 06:28:27;;;;;;;47.95;18.42;;;;;;;7.08;67.28;101565.31;1852843;76;21049;-65
2021/11/19 06:30:57;;;;;;;47.08;18.75;;;;;;;7.15;67.21;101561.74;1852555;77;21147;-64
2021/11/19 06:33:27;;;;;;;49.85;20.08;;;;;;;7.21;67.20;101566.04;1852570;77;21123;-63
2021/11/19 06:35:56;;;;;;;48.25;16.50;;;;;;;7.29;67.13;101559.83;1852752;77;21460;-63
2021/11/19 06:38:25;;;;;;;37.55;14.93;;;;;;;7.37;67.04;101557.11;1852563;77;21105;-63
2021/11/19 06:40:55;;;;;;;60.08;16.50;;;;;;;7.42;66.96;101553.99;1852186;77;21085;-64
2021/11/19 06:43:43;;;;;;;41.42;15.85;;;;;;;7.49;66.94;101552.17;1852581;77;21061;-63
2021/11/19 06:46:23;;;;;;;39.15;14.15;;;;;;;7.54;66.89;101543.78;1829364;78;21220;-63
2021/11/19 06:49:04;;;;;;;43.95;16.17;;;;;;;7.56;66.94;101536.76;1852575;77;21053;-63
2021/11/19 06:51:50;;;;;;;39.45;15.72;;;;;;;7.66;66.91;101534.90;1852575;77;21066;-63
2021/11/19 06:54:24;;;;;;;45.90;17.00;;;;;;;7.82;66.80;101538.14;1851995;77;21116;-63
2021/11/19 06:57:13;;;;;;;40.52;16.50;;;;;;;7.98;66.64;101542.27;1855837;77;21068;-63
2021/11/19 06:59:44;;;;;;;44.25;16.62;;;;;;;8.19;66.41;101540.20;1857264;77;21123;-63
2021/11/19 07:02:14;;;;;;;50.12;19.15;;;;;;;8.32;66.29;101527.31;1857369;77;21124;-63
2021/11/19 07:04:44;;;;;;;43.28;18.50;;;;;;;8.47;66.07;101531.01;1857075;77;21538;-63
2021/11/19 07:07:14;;;;;;;45.10;16.37;;;;;;;8.58;66.00;101526.88;1857346;77;21550;-63
2021/11/19 07:09:45;;;;;;;45.10;16.60;;;;;;;8.69;65.79;101526.69;1857346;77;21499;-63
2021/11/19 07:12:16;;;;;;;40.90;16.12;;;;;;;8.74;65.58;101524.82;1857322;76;21038;-64
2021/11/19 07:14:58;;;;;;;46.40;16.80;;;;;;;8.80;65.59;101525.19;1856621;77;21065;-63
2021/11/19 07:17:27;;;;;;;57.23;19.73;;;;;;;8.87;65.55;101521.52;1857334;77;21069;-63
2021/11/19 07:19:56;;;;;;;65.72;18.17;;;;;;;8.99;65.43;101516.03;1857307;77;21476;-63
2021/11/19 07:22:25;;;;;;;64.85;23.60;;;;;;;9.12;65.23;101516.65;1857329;77;21097;-64
2021/11/19 07:24:56;;;;;;;78.17;26.25;;;;;;;9.20;64.98;101511.23;1855231;77;21068;-64
2021/11/19 07:27:25;;;;;;;64.45;21.93;;;;;;;9.23;64.95;101517.28;1857530;77;21219;-63
2021/11/19 07:29:53;;;;;;;50.40;22.17;;;;;;;9.31;64.97;101509.69;1857469;77;21038;-64
2021/11/19 07:32:40;;;;;;;53.13;19.23;;;;;;;9.42;64.89;101497.17;1857306;77;21060;-63
2021/11/19 07:35:11;;;;;;;49.60;19.15;;;;;;;9.57;64.62;101495.54;1850044;77;21069;-64
2021/11/19 07:37:42;;;;;;;49.73;17.85;;;;;;;9.72;64.46;101490.80;1842820;77;21571;-63
2021/11/19 07:40:21;;;;;;;47.23;17.82;;;;;;;9.82;64.35;101500.22;1839201;77;21090;-62
2021/11/19 07:42:58;;;;;;;42.17;17.85;;;;;;;9.85;64.31;101498.84;1790639;79;21131;-62
2021/11/19 07:45:36;;;;;;;40.60;16.75;;;;;;;9.86;64.27;101493.52;1807867;79;21072;-63
2021/11/19 07:48:11;;;;;;;39.18;16.27;;;;;;;9.82;64.20;101490.55;1823156;79;21133;-62
2021/11/19 07:50:42;;;;;;;51.42;19.55;;;;;;;9.79;64.16;101493.70;1824478;79;21081;-62
2021/11/19 07:53:11;;;;;;;47.55;18.82;;;;;;;9.81;64.06;101482.69;1831032;77;21094;-62
2021/11/19 07:55:42;;;;;;;49.63;19.02;;;;;;;10.01;63.85;101475.64;1857830;77;21513;-62
2021/11/19 07:58:11;;;;;;;35.88;15.35;;;;;;;10.35;63.38;101463.83;1857831;77;21034;-62
2021/11/19 08:00:43;;;;;;;42.05;17.77;;;;;;;10.60;63.02;101461.41;1857765;77;21062;-62
2021/11/19 08:03:13;;;;;;;37.33;16.93;;;;;;;10.78;62.81;101465.28;1857883;77;21144;-62
2021/11/19 08:05:51;;;;;;;40.38;18.02;;;;;;;10.95;62.58;101470.06;1857960;77;21108;-62
2021/11/19 08:08:23;;;;;;;34.53;16.67;;;;;;;11.04;62.62;101468.08;1856744;77;21560;-62
2021/11/19 08:11:05;;;;;;;36.40;16.23;;;;;;;10.93;62.96;101471.02;1857274;77;21098;-62
2021/11/19 08:13:34;;;;;;;38.70;16.73;;;;;;;10.85;63.19;101459.86;1857790;77;21120;-62
2021/11/19 08:16:05;;;;;;;47.67;17.17;;;;;;;10.73;63.40;101455.78;1857901;77;21429;-62
2021/11/19 08:18:38;;;;;;;44.42;17.02;;;;;;;10.63;63.60;101461.30;1854393;77;21137;-62
2021/11/19 08:21:07;;;;;;;29.07;13.22;;;;;;;10.55;63.76;101451.88;1857701;77;21473;-62
2021/11/19 08:23:40;;;;;;;28.70;12.75;;;;;;;10.47;64.04;101442.02;1857887;77;21090;-62
2021/11/19 08:26:20;;;;;;;25.63;12.63;;;;;;;10.46;64.19;101425.80;1858062;77;21081;-62
2021/11/19 08:28:50;;;;;;;30.85;12.95;;;;;;;10.58;64.23;101427.64;1857735;77;21078;-62
2021/11/19 08:31:21;;;;;;;32.48;13.68;;;;;;;10.96;63.81;101426.15;1857816;77;21026;-62
2021/11/19 08:33:50;;;;;;;29.23;13.45;;;;;;;11.33;63.37;101428.98;1857709;77;21607;-62
2021/11/19 08:36:21;;;;;;;39.88;17.23;;;;;;;11.67;62.96;101424.80;1857798;77;21152;-62
2021/11/19 08:38:50;;;;;;;30.57;12.88;;;;;;;11.81;62.82;101416.44;1857803;77;21038;-62
2021/11/19 08:41:20;;;;;;;22.95;10.93;;;;;;;11.88;62.46;101409.19;1857771;77;21050;-62
2021/11/19 08:43:51;;;;;;;37.55;14.63;;;;;;;12.38;61.43;101407.06;1857780;77;21037;-62
2021/11/19 08:46:24;;;;;;;44.93;17.98;;;;;;;12.85;60.47;101400.46;1857705;77;21094;-62
2021/11/19 08:48:53;;;;;;;42.27;14.77;;;;;;;13.22;59.71;101397.71;1858128;77;21457;-62
2021/11/19 08:51:24;;;;;;;33.70;14.40;;;;;;;13.71;58.80;101390.47;1857762;77;21099;-62
2021/11/19 08:53:56;;;;;;;27.98;13.00;;;;;;;14.31;57.78;101385.70;1855519;77;21087;-62
2021/11/19 08:56:25;;;;;;;39.20;14.13;;;;;;;14.48;57.40;101386.67;1846172;78;21120;-63
2021/11/19 08:58:54;;;;;;;32.30;13.48;;;;;;;14.46;57.42;101390.33;1846152;77;21608;-63
2021/11/19 09:01:24;;;;;;;30.00;12.63;;;;;;;14.53;57.09;101383.80;1846137;77;21160;-62
2021/11/19 09:03:53;;;;;;;30.77;14.60;;;;;;;14.55;56.97;101381.97;1846275;78;21489;-63
2021/11/19 09:06:22;;;;;;;29.90;13.10;;;;;;;15.11;55.93;101370.14;1846200;78;21018;-63
2021/11/19 09:08:52;;;;;;;25.15;13.10;;;;;;;15.58;54.72;101368.27;1846154;78;21509;-63
2021/11/19 09:11:24;;;;;;;33.90;14.30;;;;;;;15.31;54.87;101370.03;1846191;78;21109;-63
2021/11/19 09:13:56;;;;;;;37.30;16.27;;;;;;;14.86;55.49;101360.23;1846168;77;21046;-62
2021/11/19 09:16:28;;;;;;;37.73;14.80;;;;;;;14.28;56.55;101367.69;1846199;78;21050;-63
2021/11/19 09:19:19;;;;;;;35.30;14.80;;;;;;;13.73;57.52;101368.77;1846151;78;21113;-63
2021/11/19 09:21:50;;;;;;;33.78;14.45;;;;;;;13.19;58.35;101367.45;1846095;78;21207;-63
2021/11/19 09:24:22;;;;;;;28.20;13.90;;;;;;;12.59;59.06;101366.63;1846301;78;21126;-62
2021/11/19 09:26:57;;;;;;;35.73;16.15;;;;;;;12.25;59.41;101371.84;1846153;78;21030;-62
2021/11/19 09:29:31;;;;;;;34.33;14.30;;;;;;;11.95;59.52;101374.66;1846172;78;21109;-62
2021/11/19 09:32:01;;;;;;;31.05;14.75;;;;;;;11.71;59.83;101373.69;1846023;78;21120;-63
2021/11/19 09:34:34;;;;;;;31.35;15.48;;;;;;;11.53;60.20;101368.55;1846221;78;21486;-62
2021/11/19 09:37:03;;;;;;;34.58;14.25;;;;;;;11.39;60.41;101368.14;1846197;78;21066;-62
2021/11/19 09:39:32;;;;;;;35.68;16.02;;;;;;;11.23;60.72;101361.16;1846265;77;21046;-62
2021/11/19 09:42:09;;;;;;;43.52;17.57;;;;;;;11.11;60.94;101359.79;1846248;77;21055;-62
2021/11/19 09:45:00;;;;;;;36.85;15.63;;;;;;;10.98;61.04;101363.72;1846138;78;21509;-62
2021/11/19 09:47:49;;;;;;;38.23;16.80;;;;;;;10.77;61.16;101358.20;1846330;78;21066;-62
2021/11/19 09:50:52;;;;;;;36.73;17.67;;;;;;;10.58;61.39;101357.00;1846239;78;21050;-62
2021/11/19 09:53:30;;;;;;;39.17;17.83;;;;;;;10.41;61.61;101362.30;1846537;77;21098;-63
2021/11/19 09:56:25;;;;;;;36.40;15.10;;;;;;;10.30;61.74;101360.39;1847997;78;21461;-62
2021/11/19 09:59:00;;;;;;;38.35;15.98;;;;;;;10.13;61.91;101356.06;1848330;78;21031;-62
2021/11/19 10:02:06;;;;;;;40.83;15.65;;;;;;;10.00;61.99;101357.70;1848167;77;21220;-62
2021/11/19 10:05:11;;;;;;;42.38;17.10;;;;;;;10.04;62.19;101347.50;1848322;78;21132;-62
2021/11/19 10:08:08;;;;;;;42.62;18.40;;;;;;;9.96;62.15;101352.12;1848259;78;21613;-62
2021/11/19 10:10:51;;;;;;;36.17;15.05;;;;;;;9.81;62.46;101345.92;1848368;78;21109;-62
2021/11/19 10:13:24;;;;;;;41.73;16.37;;;;;;;9.78;62.61;101351.29;1848295;77;21046;-62
2021/11/19 10:16:04;;;;;;;39.05;15.90;;;;;;;9.74;62.75;101356.19;1848222;77;21126;-63
2021/11/19 10:18:40;;;;;;;37.33;15.90;;;;;;;9.72;62.79;101357.57;1848241;77;21082;-62
2021/11/19 10:21:13;;;;;;;34.10;16.80;;;;;;;9.61;62.84;101356.98;1848385;77;21116;-62
2021/11/19 10:23:47;;;;;;;43.75;16.27;;;;;;;9.45;63.16;101364.38;1848462;77;21079;-62
2021/11/19 10:26:26;;;;;;;38.78;16.00;;;;;;;9.38;63.13;101361.02;1848237;78;21054;-62
2021/11/19 10:29:00;;;;;;;37.00;15.38;;;;;;;9.32;63.09;101362.95;1847985;78;21090;-62
2021/11/19 10:31:30;;;;;;;39.10;15.83;;;;;;;9.17;63.23;101364.17;1846856;77;21055;-62
2021/11/19 10:34:18;;;;;;;42.00;17.70;;;;;;;8.94;63.60;101374.73;1848311;78;21525;-62
2021/11/19 10:37:13;;;;;;;44.65;15.93;;;;;;;8.78;64.07;101382.09;1848203;77;21090;-62
2021/11/19 10:40:10;;;;;;;33.83;12.70;;;;;;;8.58;64.41;101386.91;1848313;78;21591;-62
2021/11/19 10:42:59;;;;;;;33.73;13.90;;;;;;;8.41;64.66;101391.11;1848284;78;21501;-62
2021/11/19 10:49:10;;;;;;;25.70;10.45;;;;;;;8.24;65.19;101383.58;1848344;77;21144;-62
2021/11/19 10:52:07;;;;;;;25.08;10.30;;;;;;;8.26;65.18;101376.54;1848465;78;21080;-62
2021/11/19 10:54:51;;;;;;;23.87;9.73;;;;;;;8.27;65.20;101371.27;1848432;78;21187;-61
2021/11/19 10:57:30;;;;;;;;;;;;;;;8.30;65.37;101366.42;1850917;78;21086;-63
2021/11/19 11:00:14;;;;;;;22.22;9.70;;;;;;;8.29;65.51;101365.99;1848235;78;20123;-62
2021/11/19 11:02:51;;;;;;;21.35;9.98;;;;;;;8.22;65.60;101361.75;1848341;78;21050;-62
2021/11/19 11:05:38;;;;;;;21.48;9.90;;;;;;;8.17;66.13;101358.34;1847536;78;21571;-62
2021/11/19 11:08:16;;;;;;;25.48;11.10;;;;;;;8.21;66.29;101358.73;1848260;78;21160;-62
2021/11/19 11:10:47;;;;;;;19.90;8.68;;;;;;;8.25;66.34;101362.56;1848238;78;21125;-62
2021/11/19 11:13:34;;;;;;;24.02;9.65;;;;;;;8.24;66.66;101362.59;1848308;78;21129;-62
2021/11/19 11:16:06;;;;;;;23.75;9.85;;;;;;;8.25;66.73;101360.39;1848297;78;21066;-63
2021/11/19 11:18:49;;;;;;;23.50;10.72;;;;;;;8.25;66.79;101366.95;1848330;78;21051;-63
2021/11/19 11:21:38;;;;;;;28.20;11.28;;;;;;;8.18;67.05;101366.66;1836789;77;21513;-62
2021/11/19 11:24:12;;;;;;;23.50;10.20;;;;;;;8.11;67.24;101372.02;1848319;78;21094;-62
2021/11/19 11:27:01;;;;;;;29.02;10.48;;;;;;;8.06;67.46;101375.17;1847832;78;21114;-62
2021/11/19 11:29:58;;;;;;;27.87;10.30;;;;;;;8.01;67.77;101373.53;1848294;78;21493;-62
2021/11/19 11:32:56;;;;;;;28.20;11.60;;;;;;;8.04;67.64;101373.45;1848419;78;21085;-62
2021/11/19 11:36:02;;;;;;;28.67;11.88;;;;;;;8.05;67.62;101370.80;1848398;78;21011;-63
2021/11/19 11:38:49;;;;;;;26.27;11.00;;;;;;;8.04;67.80;101370.41;1848352;78;21120;-62
2021/11/19 11:41:25;;;;;;;28.40;11.53;;;;;;;8.01;67.96;101366.52;1848127;78;21081;-62
2021/11/19 11:43:59;;;;;;;28.92;11.63;;;;;;;7.95;68.37;101357.46;1848253;78;21078;-61
2021/11/19 11:46:31;;;;;;;30.70;13.62;;;;;;;7.93;68.67;101359.25;1848298;78;21074;-62
2021/11/19 11:49:06;;;;;;;34.27;14.50;;;;;;;7.99;68.83;101352.57;1848286;78;21116;-61
2021/11/19 11:51:54;;;;;;;31.73;13.32;;;;;;;8.07;68.63;101351.97;1848278;78;21062;-62
2021/11/19 11:54:35;;;;;;;28.67;11.83;;;;;;;8.12;68.54;101354.06;1848474;78;21046;-62